KAPN/APN METAR and TAF weather

Enter ICAO airport designator
Station Type Date Time Source
KAPN METAR 2019/06/20 06:54 UTC NOAA

KAPN 200654Z AUTO 32003KT 10SM CLR 11/09 A2973 RMK AO2 SLP068 T01060094


Station Type Date Time Source
KAPN Decoded METAR 2019/06/20 06:54 UTC NOAA

ALPENA COUNTY REGIONAL AIRPORT, MI, United States (KAPN) 45-05N 083-34W 210M
Jun 20, 2019 - 02:54 AM EDT / 2019.06.20 0654 UTC
Wind: from the NW (320 degrees) at 3 MPH (3 KT):0
Visibility: 10 mile(s):0
Sky conditions: clear
Temperature: 51.1 F (10.6 C)
Dew Point: 48.9 F (9.4 C)
Relative Humidity: 92%
Pressure (altimeter): 29.73 in. Hg (1006 hPa)
ob: KAPN 200654Z AUTO 32003KT 10SM CLR 11/09 A2973 RMK AO2 SLP068 T01060094
cycle: 7

Station Type Date Time Source
KAPN TAF 2019/06/20 06:22 UTC NOAA

TAF KAPN 200520Z 2006/2106 00000KT P6SM BKN080
FM201200 04005KT P6SM BKN150
FM201800 05008KT P6SM SCT250
FM202300 02005KT P6SM SCT250
FM210200 00000KT P6SM FEW180

Example: see airport list